Time;durP1;ratioP1;P1;durP2;ratioP2;P2;SDS_P1;SDS_P2;PMS_P1;PMS_P2;Temp;Humidity;BMP_temperature;BMP_pressure;BME280_temperature;BME280_humidity;BME280_pressure;Samples;Min_cycle;Max_cycle;Signal;HPM_P1;HPM_P2
2022/01/20 00:01:23;;;;;;;15.48;3.20;;;;;;;;;;4878183;29;20144;-73
2022/01/20 00:03:32;;;;;;;14.82;3.00;;;;;;;;;;4878247;29;20092;-73
2022/01/20 00:27:35;;;;;;;14.80;3.20;;;;;;;;;;4876565;29;20048;-71
2022/01/20 00:33:18;;;;;;;9.63;2.60;;;;;;;;;;4877139;29;20084;-73
2022/01/20 00:35:27;;;;;;;6.80;2.00;;;;;;;;;;4873553;29;20487;-76
2022/01/20 00:37:53;;;;;;;9.48;2.55;;;;;;;;;;4878680;29;20049;-73
2022/01/20 00:40:19;;;;;;;8.73;2.47;;;;;;;;;;4879234;29;20041;-74
2022/01/20 00:42:45;;;;;;;8.10;2.30;;;;;;;;;;4878571;29;20060;-74
2022/01/20 00:45:12;;;;;;;9.90;2.30;;;;;;;;;;4879352;29;20532;-75
2022/01/20 00:47:39;;;;;;;10.77;2.95;;;;;;;;;;4878014;29;20137;-74
2022/01/20 00:50:08;;;;;;;8.52;2.30;;;;;;;;;;4878988;29;20052;-71
2022/01/20 00:52:35;;;;;;;10.43;2.90;;;;;;;;;;4878855;29;20068;-72
2022/01/20 00:55:01;;;;;;;11.13;2.40;;;;;;;;;;4878794;29;20061;-74
2022/01/20 00:57:27;;;;;;;11.68;2.55;;;;;;;;;;4878165;29;20537;-73
2022/01/20 00:59:53;;;;;;;13.38;3.15;;;;;;;;;;4879699;29;20045;-72
2022/01/20 01:02:21;;;;;;;8.45;2.78;;;;;;;;;;4881735;29;20041;-73
2022/01/20 01:04:47;;;;;;;11.93;2.55;;;;;;;;;;4881551;29;20068;-75
2022/01/20 01:09:45;;;;;;;15.30;3.05;;;;;;;;;;4880908;29;20140;-73
2022/01/20 01:12:17;;;;;;;10.60;3.00;;;;;;;;;;4881528;29;20154;-73
2022/01/20 01:14:48;;;;;;;10.43;2.80;;;;;;;;;;4880589;29;20049;-76
2022/01/20 01:20:25;;;;;;;14.65;2.92;;;;;;;;;;4881626;29;20097;-72
2022/01/20 01:22:30;;;;;;;9.32;2.95;;;;;;;;;;4876076;29;20145;-74
2022/01/20 01:24:57;;;;;;;8.05;2.60;;;;;;;;;;4893375;29;20052;-74
2022/01/20 01:27:25;;;;;;;12.80;2.65;;;;;;;;;;4882527;29;20052;-75
2022/01/20 01:32:48;;;;;;;13.45;3.50;;;;;;;;;;4879293;29;20053;-72
2022/01/20 01:35:14;;;;;;;15.23;3.28;;;;;;;;;;4879921;29;20053;-73
2022/01/20 01:40:08;;;;;;;17.73;3.38;;;;;;;;;;4880773;29;20064;-74
2022/01/20 01:42:45;;;;;;;13.73;2.70;;;;;;;;;;4880637;29;20061;-73
2022/01/20 01:45:15;;;;;;;11.27;2.75;;;;;;;;;;4878057;29;20084;-73
2022/01/20 01:47:41;;;;;;;13.25;3.28;;;;;;;;;;4881008;29;20144;-73
2022/01/20 01:50:08;;;;;;;7.82;2.83;;;;;;;;;;4880891;29;20116;-76
2022/01/20 01:52:34;;;;;;;9.20;2.58;;;;;;;;;;4865756;29;20041;-74
2022/01/20 01:55:00;;;;;;;9.40;2.50;;;;;;;;;;4879139;29;20100;-76
2022/01/20 01:57:27;;;;;;;7.55;2.00;;;;;;;;;;4879300;29;20048;-75
2022/01/20 01:59:54;;;;;;;10.88;2.80;;;;;;;;;;4880031;29;20049;-72
2022/01/20 02:02:20;;;;;;;15.23;2.72;;;;;;;;;;4879591;29;20049;-77
2022/01/20 02:04:48;;;;;;;9.40;2.38;;;;;;;;;;4879441;29;20114;-76
2022/01/20 02:20:53;;;;;;;15.98;3.53;;;;;;;;;;4881049;29;20455;-75
2022/01/20 02:23:21;;;;;;;21.45;4.10;;;;;;;;;;4880626;29;20053;-74
2022/01/20 02:25:48;;;;;;;15.88;3.88;;;;;;;;;;4878957;29;20064;-73
2022/01/20 02:28:14;;;;;;;26.08;4.82;;;;;;;;;;4878722;29;20060;-73
2022/01/20 02:30:44;;;;;;;21.17;4.32;;;;;;;;;;4880544;29;20056;-74
2022/01/20 02:33:16;;;;;;;23.27;4.30;;;;;;;;;;4878284;29;20082;-75
2022/01/20 02:35:44;;;;;;;17.65;4.15;;;;;;;;;;4865058;29;20049;-74
2022/01/20 02:38:17;;;;;;;16.63;3.70;;;;;;;;;;4880098;29;20350;-75
2022/01/20 02:45:56;;;;;;;18.98;3.92;;;;;;;;;;4880638;29;20457;-74
2022/01/20 02:48:22;;;;;;;26.60;5.75;;;;;;;;;;4880670;29;20055;-73
2022/01/20 02:50:48;;;;;;;19.75;4.78;;;;;;;;;;4880783;29;20128;-74
2022/01/20 02:53:14;;;;;;;22.35;4.80;;;;;;;;;;4879968;29;20061;-72
2022/01/20 02:55:40;;;;;;;14.70;4.25;;;;;;;;;;4881037;29;20064;-73
2022/01/20 02:58:07;;;;;;;17.60;3.80;;;;;;;;;;4871361;29;20049;-73
2022/01/20 03:00:34;;;;;;;15.20;4.32;;;;;;;;;;4879431;29;20116;-71
2022/01/20 03:03:00;;;;;;;21.40;4.80;;;;;;;;;;4879910;29;20064;-72
2022/01/20 03:05:27;;;;;;;16.27;3.88;;;;;;;;;;4880826;29;20096;-73
2022/01/20 03:07:53;;;;;;;16.10;4.72;;;;;;;;;;4880726;29;20053;-72
2022/01/20 03:10:19;;;;;;;22.20;4.93;;;;;;;;;;4880630;29;20068;-73
2022/01/20 03:12:45;;;;;;;21.90;5.00;;;;;;;;;;4879389;29;20053;-73
2022/01/20 03:15:11;;;;;;;21.92;4.65;;;;;;;;;;4879371;29;20057;-73
2022/01/20 03:17:37;;;;;;;15.48;4.60;;;;;;;;;;4878277;29;20056;-74
2022/01/20 03:20:04;;;;;;;18.45;3.80;;;;;;;;;;4862684;29;20045;-74
2022/01/20 03:22:30;;;;;;;18.67;4.07;;;;;;;;;;4861790;29;20410;-74
2022/01/20 03:24:57;;;;;;;13.25;3.40;;;;;;;;;;4873903;29;20457;-74
2022/01/20 03:27:23;;;;;;;11.82;2.97;;;;;;;;;;4876371;29;20067;-72
2022/01/20 03:29:50;;;;;;;11.77;2.58;;;;;;;;;;4893601;29;20060;-71
2022/01/20 03:32:16;;;;;;;11.45;3.08;;;;;;;;;;4875658;29;20056;-72
2022/01/20 03:34:42;;;;;;;9.30;2.67;;;;;;;;;;4875443;29;20053;-74
2022/01/20 03:37:08;;;;;;;13.30;3.42;;;;;;;;;;4879189;29;20057;-74
2022/01/20 03:39:34;;;;;;;11.73;3.20;;;;;;;;;;4860951;29;20057;-73
2022/01/20 03:42:00;;;;;;;18.05;3.90;;;;;;;;;;4877615;29;20056;-72
2022/01/20 03:44:26;;;;;;;14.02;3.78;;;;;;;;;;4877196;29;20456;-72
2022/01/20 03:46:52;;;;;;;15.77;4.07;;;;;;;;;;4878533;29;20048;-73
2022/01/20 03:49:36;;;;;;;19.35;3.47;;;;;;;;;;4879291;29;20108;-73
2022/01/20 03:52:02;;;;;;;14.10;3.88;;;;;;;;;;4875464;29;20076;-71
2022/01/20 03:54:28;;;;;;;14.30;3.42;;;;;;;;;;4876019;29;20144;-74
2022/01/20 03:56:54;;;;;;;16.15;3.72;;;;;;;;;;4876911;29;20448;-72
2022/01/20 03:59:20;;;;;;;12.50;3.38;;;;;;;;;;4875158;29;20060;-75
2022/01/20 04:01:47;;;;;;;17.02;4.35;;;;;;;;;;4876181;29;20049;-71
2022/01/20 04:04:13;;;;;;;14.57;3.63;;;;;;;;;;4876678;29;20740;-72
2022/01/20 04:06:39;;;;;;;10.27;3.22;;;;;;;;;;4861228;29;20230;-74
2022/01/20 04:09:05;;;;;;;13.57;3.42;;;;;;;;;;4879560;29;20052;-73
2022/01/20 04:11:31;;;;;;;13.65;3.65;;;;;;;;;;4875783;29;20049;-72
2022/01/20 04:13:58;;;;;;;13.65;3.60;;;;;;;;;;4874127;29;20048;-74
2022/01/20 04:16:50;;;;;;;15.38;3.88;;;;;;;;;;4876433;29;20540;-73
2022/01/20 04:19:16;;;;;;;15.30;3.47;;;;;;;;;;4876395;29;20068;-74
2022/01/20 04:21:42;;;;;;;10.23;2.78;;;;;;;;;;4875956;29;20075;-73
2022/01/20 04:24:09;;;;;;;12.57;2.85;;;;;;;;;;4876284;29;20064;-72
2022/01/20 04:26:36;;;;;;;15.23;3.05;;;;;;;;;;4877525;29;20049;-73
2022/01/20 04:29:03;;;;;;;10.23;3.35;;;;;;;;;;4879263;29;20074;-73
2022/01/20 04:31:30;;;;;;;11.63;2.88;;;;;;;;;;4876703;29;20376;-74
2022/01/20 04:33:57;;;;;;;9.32;2.95;;;;;;;;;;4880538;29;20083;-73
2022/01/20 04:36:24;;;;;;;11.52;3.33;;;;;;;;;;4880467;29;20061;-74
2022/01/20 04:38:50;;;;;;;13.15;3.78;;;;;;;;;;4882369;29;20053;-71
2022/01/20 04:41:16;;;;;;;10.43;3.05;;;;;;;;;;4883366;29;20076;-72
2022/01/20 04:43:42;;;;;;;16.42;3.47;;;;;;;;;;4882425;29;20057;-74
2022/01/20 04:59:33;;;;;;;18.45;3.88;;;;;;;;;;4882185;29;20065;-75
2022/01/20 05:01:59;;;;;;;16.95;3.72;;;;;;;;;;4882763;29;20057;-71
2022/01/20 05:04:26;;;;;;;18.83;3.78;;;;;;;;;;4882593;29;20048;-73
2022/01/20 05:06:55;;;;;;;11.93;3.00;;;;;;;;;;4882502;29;20211;-72
2022/01/20 05:09:22;;;;;;;12.63;2.95;;;;;;;;;;4880311;29;20071;-72
2022/01/20 05:11:52;;;;;;;14.70;3.00;;;;;;;;;;4881916;29;20057;-72
2022/01/20 05:14:19;;;;;;;12.40;3.22;;;;;;;;;;4865228;29;20136;-74
2022/01/20 05:16:45;;;;;;;10.80;2.88;;;;;;;;;;4881340;29;20061;-71
2022/01/20 05:19:11;;;;;;;13.15;3.30;;;;;;;;;;4882952;29;20052;-73
2022/01/20 05:21:37;;;;;;;15.63;3.63;;;;;;;;;;4881640;29;20113;-77
2022/01/20 05:24:03;;;;;;;14.55;3.63;;;;;;;;;;4864893;29;20119;-74
2022/01/20 05:26:29;;;;;;;9.73;2.95;;;;;;;;;;4881683;29;20068;-72
2022/01/20 05:28:55;;;;;;;12.77;3.40;;;;;;;;;;4881609;29;20136;-76
2022/01/20 05:31:22;;;;;;;13.32;3.30;;;;;;;;;;4865321;29;20469;-74
2022/01/20 05:33:48;;;;;;;17.75;3.47;;;;;;;;;;4879464;29;20061;-73
2022/01/20 05:36:14;;;;;;;18.10;3.28;;;;;;;;;;4881385;29;20138;-73
2022/01/20 05:38:40;;;;;;;12.40;3.53;;;;;;;;;;4881468;29;20041;-73
2022/01/20 05:41:06;;;;;;;13.88;3.83;;;;;;;;;;4881079;29;20160;-74
2022/01/20 05:43:32;;;;;;;12.73;3.15;;;;;;;;;;4879494;29;20136;-72
2022/01/20 05:45:58;;;;;;;15.23;3.55;;;;;;;;;;4878850;29;20061;-75
2022/01/20 05:48:35;;;;;;;21.00;5.22;;;;;;;;;;4880257;29;20057;-73
2022/01/20 05:51:02;;;;;;;12.18;3.38;;;;;;;;;;4865288;29;20080;-72
2022/01/20 05:53:28;;;;;;;16.67;3.45;;;;;;;;;;4881239;29;20083;-73
2022/01/20 05:55:54;;;;;;;16.13;3.58;;;;;;;;;;4881317;29;20425;-74
2022/01/20 05:58:20;;;;;;;15.95;3.63;;;;;;;;;;4880636;29;20136;-71
2022/01/20 06:00:47;;;;;;;11.75;3.53;;;;;;;;;;4879096;29;20143;-76
2022/01/20 06:05:59;;;;;;;10.15;2.92;;;;;;;;;;4878526;29;20057;-74
2022/01/20 06:08:26;;;;;;;12.73;3.28;;;;;;;;;;4866431;29;20056;-76
2022/01/20 06:10:53;;;;;;;10.98;3.30;;;;;;;;;;4879305;29;20049;-73
2022/01/20 06:13:19;;;;;;;17.23;3.38;;;;;;;;;;4879915;29;20044;-77
2022/01/20 06:15:45;;;;;;;12.00;3.30;;;;;;;;;;4879501;29;20052;-74
2022/01/20 06:18:11;;;;;;;22.83;3.63;;;;;;;;;;4880834;29;20703;-75
2022/01/20 06:20:38;;;;;;;10.73;3.60;;;;;;;;;;4880921;29;20070;-72
2022/01/20 06:23:05;;;;;;;9.07;3.00;;;;;;;;;;4881699;29;20053;-72
2022/01/20 06:25:31;;;;;;;13.77;2.67;;;;;;;;;;4880515;29;20123;-75
2022/01/20 06:27:57;;;;;;;15.52;4.45;;;;;;;;;;4880147;29;20073;-73
2022/01/20 06:30:25;;;;;;;10.38;3.10;;;;;;;;;;4879991;29;20044;-73
2022/01/20 06:32:51;;;;;;;11.00;3.03;;;;;;;;;;4879125;29;20354;-72
2022/01/20 06:35:17;;;;;;;12.52;3.03;;;;;;;;;;4879600;29;20060;-74
2022/01/20 06:37:43;;;;;;;12.00;4.00;;;;;;;;;;4880401;29;20045;-75
2022/01/20 06:40:10;;;;;;;11.95;3.10;;;;;;;;;;4880546;29;20384;-74
2022/01/20 06:42:36;;;;;;;14.65;3.20;;;;;;;;;;4880844;29;20041;-72
2022/01/20 06:45:06;;;;;;;22.45;5.22;;;;;;;;;;4870992;29;20139;-77
2022/01/20 06:47:32;;;;;;;20.60;4.90;;;;;;;;;;4877580;29;20045;-73
2022/01/20 06:49:59;;;;;;;27.88;4.93;;;;;;;;;;4877643;29;20426;-72
2022/01/20 06:52:26;;;;;;;21.27;4.10;;;;;;;;;;4864015;29;20076;-73
2022/01/20 06:54:52;;;;;;;18.00;4.28;;;;;;;;;;4872293;29;20132;-71
2022/01/20 06:57:18;;;;;;;16.33;5.38;;;;;;;;;;4879057;29;20052;-73
2022/01/20 06:59:44;;;;;;;14.00;3.25;;;;;;;;;;4879659;29;20045;-72
2022/01/20 07:02:10;;;;;;;16.70;3.30;;;;;;;;;;4880347;29;20060;-76
2022/01/20 07:04:38;;;;;;;14.23;3.33;;;;;;;;;;4879404;29;20057;-73
2022/01/20 07:07:04;;;;;;;17.25;3.58;;;;;;;;;;4864399;29;20132;-73
2022/01/20 07:09:31;;;;;;;12.45;3.40;;;;;;;;;;4880530;29;20369;-75
2022/01/20 07:11:58;;;;;;;18.98;3.22;;;;;;;;;;4879743;29;20177;-72
2022/01/20 07:14:24;;;;;;;13.88;3.28;;;;;;;;;;4879503;29;20299;-74
2022/01/20 07:16:50;;;;;;;13.95;3.10;;;;;;;;;;4880324;29;20060;-75
2022/01/20 07:19:16;;;;;;;9.55;2.95;;;;;;;;;;4879915;29;20053;-75
2022/01/20 07:21:42;;;;;;;13.52;3.20;;;;;;;;;;4880004;29;20112;-73
2022/01/20 07:24:09;;;;;;;11.70;3.63;;;;;;;;;;4879644;29;20055;-75
2022/01/20 07:26:35;;;;;;;14.98;3.75;;;;;;;;;;4879767;29;20532;-72
2022/01/20 07:29:01;;;;;;;10.57;2.97;;;;;;;;;;4864923;29;20057;-75
2022/01/20 07:31:27;;;;;;;12.45;3.42;;;;;;;;;;4880033;29;20056;-72
2022/01/20 07:33:53;;;;;;;17.02;3.72;;;;;;;;;;4879123;29;20045;-73
2022/01/20 07:36:19;;;;;;;15.90;3.15;;;;;;;;;;4878104;29;20049;-73
2022/01/20 07:38:45;;;;;;;17.77;3.63;;;;;;;;;;4867747;29;20067;-73
2022/01/20 07:41:11;;;;;;;13.35;3.22;;;;;;;;;;4861973;29;20197;-72
2022/01/20 07:43:38;;;;;;;13.57;3.15;;;;;;;;;;4879809;29;20084;-75
2022/01/20 07:46:04;;;;;;;17.08;3.67;;;;;;;;;;4880001;29;20056;-75
2022/01/20 07:48:31;;;;;;;17.40;3.72;;;;;;;;;;4879371;29;20412;-73
2022/01/20 07:50:57;;;;;;;15.15;4.65;;;;;;;;;;4864550;29;20049;-72
2022/01/20 07:53:23;;;;;;;19.55;4.85;;;;;;;;;;4879721;29;20465;-71
2022/01/20 07:55:50;;;;;;;20.02;4.82;;;;;;;;;;4879033;29;20045;-72
2022/01/20 07:58:16;;;;;;;17.70;4.93;;;;;;;;;;4879302;29;20057;-74
2022/01/20 08:00:42;;;;;;;19.92;4.47;;;;;;;;;;4879812;29;20120;-72
2022/01/20 08:03:08;;;;;;;23.08;4.22;;;;;;;;;;4878923;29;20052;-75
2022/01/20 08:05:34;;;;;;;15.75;4.05;;;;;;;;;;4879623;29;20053;-74
2022/01/20 08:08:00;;;;;;;19.15;4.15;;;;;;;;;;4879429;29;20072;-73
2022/01/20 08:10:27;;;;;;;21.73;4.13;;;;;;;;;;4879099;29;20053;-82
2022/01/20 08:12:53;;;;;;;10.98;3.22;;;;;;;;;;4863861;29;20057;-73
2022/01/20 08:15:20;;;;;;;16.27;3.90;;;;;;;;;;4863701;29;20056;-76
2022/01/20 08:17:47;;;;;;;13.27;3.40;;;;;;;;;;4879023;29;20045;-71
2022/01/20 08:20:13;;;;;;;15.82;4.03;;;;;;;;;;4879168;29;20472;-80
2022/01/20 08:22:39;;;;;;;16.65;3.67;;;;;;;;;;4862506;29;20121;-71
2022/01/20 08:25:07;;;;;;;15.05;3.17;;;;;;;;;;4863154;29;20056;-72
2022/01/20 08:27:34;;;;;;;15.15;3.30;;;;;;;;;;4874990;29;20053;-72
2022/01/20 08:30:00;;;;;;;11.45;3.40;;;;;;;;;;4867503;29;20056;-73
2022/01/20 08:32:26;;;;;;;14.82;4.05;;;;;;;;;;4878858;29;20041;-73
2022/01/20 08:34:52;;;;;;;10.65;2.72;;;;;;;;;;4878296;29;20090;-74
2022/01/20 08:37:19;;;;;;;11.85;2.90;;;;;;;;;;4879369;29;20554;-73
2022/01/20 08:39:45;;;;;;;8.63;3.05;;;;;;;;;;4878760;29;20148;-73
2022/01/20 08:42:12;;;;;;;12.13;3.00;;;;;;;;;;4878056;29;20064;-73
2022/01/20 08:44:38;;;;;;;13.57;3.75;;;;;;;;;;4877808;29;20060;-73
2022/01/20 08:47:09;;;;;;;9.40;2.50;;;;;;;;;;4879290;29;20045;-73
2022/01/20 08:49:36;;;;;;;12.35;3.00;;;;;;;;;;4878111;29;20053;-73
2022/01/20 08:52:02;;;;;;;6.40;2.70;;;;;;;;;;4877849;29;20112;-73
2022/01/20 08:54:28;;;;;;;10.50;3.08;;;;;;;;;;4878969;29;20041;-72
2022/01/20 08:56:54;;;;;;;12.05;3.08;;;;;;;;;;4878534;29;20056;-73
2022/01/20 08:59:20;;;;;;;17.92;3.97;;;;;;;;;;4878455;29;20048;-74
2022/01/20 09:01:46;;;;;;;13.45;3.75;;;;;;;;;;4877543;29;20045;-73
2022/01/20 09:04:12;;;;;;;13.00;3.33;;;;;;;;;;4863752;29;20429;-73
2022/01/20 09:06:38;;;;;;;8.82;2.60;;;;;;;;;;4863425;29;20056;-74
2022/01/20 09:09:04;;;;;;;10.50;2.67;;;;;;;;;;4871469;29;20053;-72
2022/01/20 09:11:36;;;;;;;9.32;2.72;;;;;;;;;;4879175;29;20045;-73
2022/01/20 09:16:47;;;;;;;9.23;2.80;;;;;;;;;;4878850;29;20045;-75
2022/01/20 09:19:13;;;;;;;11.77;2.78;;;;;;;;;;4878365;29;20052;-74
2022/01/20 09:21:40;;;;;;;9.98;3.05;;;;;;;;;;4867131;29;20591;-74
2022/01/20 09:24:07;;;;;;;11.30;3.00;;;;;;;;;;4881643;29;20438;-74
2022/01/20 09:26:33;;;;;;;8.70;2.80;;;;;;;;;;4882104;29;20060;-75
2022/01/20 09:29:00;;;;;;;9.23;2.70;;;;;;;;;;4882176;29;20037;-75
2022/01/20 09:31:27;;;;;;;13.10;3.45;;;;;;;;;;4883116;29;20053;-74
2022/01/20 09:33:55;;;;;;;12.40;2.90;;;;;;;;;;4881758;29;20105;-74
2022/01/20 09:36:22;;;;;;;10.40;2.83;;;;;;;;;;4881524;29;20449;-74
2022/01/20 09:38:49;;;;;;;9.45;2.75;;;;;;;;;;4881932;29;20417;-73
2022/01/20 09:41:15;;;;;;;9.70;2.50;;;;;;;;;;4883099;29;20091;-76
2022/01/20 09:43:41;;;;;;;11.88;3.00;;;;;;;;;;4882037;29;20480;-74
2022/01/20 09:46:08;;;;;;;9.73;2.65;;;;;;;;;;4866369;29;20052;-73
2022/01/20 09:48:34;;;;;;;13.93;3.55;;;;;;;;;;4882195;29;20222;-74
2022/01/20 09:51:01;;;;;;;8.85;2.40;;;;;;;;;;4882012;29;20136;-76
2022/01/20 09:53:27;;;;;;;9.95;2.20;;;;;;;;;;4881800;29;20064;-73
2022/01/20 09:55:54;;;;;;;4.53;1.75;;;;;;;;;;4881608;29;20462;-76
2022/01/20 09:58:20;;;;;;;9.77;2.42;;;;;;;;;;4881861;29;20049;-75
2022/01/20 10:00:47;;;;;;;10.15;2.50;;;;;;;;;;4881383;29;20055;-75
2022/01/20 10:03:17;;;;;;;12.90;4.05;;;;;;;;;;4866582;29;20521;-76
2022/01/20 10:05:48;;;;;;;9.43;2.97;;;;;;;;;;4881465;29;20060;-75
2022/01/20 10:08:16;;;;;;;9.77;3.05;;;;;;;;;;4861707;29;20086;-76
2022/01/20 10:10:49;;;;;;;10.15;2.80;;;;;;;;;;4866423;29;20049;-75
2022/01/20 10:13:17;;;;;;;14.05;3.22;;;;;;;;;;4874403;29;20372;-76
2022/01/20 10:15:44;;;;;;;11.93;3.10;;;;;;;;;;4881587;29;20468;-76
2022/01/20 10:18:15;;;;;;;17.00;3.65;;;;;;;;;;4880269;29;20052;-78
2022/01/20 10:21:11;;;;;;;14.57;4.25;;;;;;;;;;4880641;29;20091;-74
2022/01/20 10:23:44;;;;;;;14.82;3.70;;;;;;;;;;4877152;29;20049;-77
2022/01/20 10:26:16;;;;;;;13.40;3.90;;;;;;;;;;4879915;29;20045;-77
2022/01/20 10:28:45;;;;;;;12.25;3.10;;;;;;;;;;4865575;29;20075;-77
2022/01/20 10:31:11;;;;;;;7.28;2.55;;;;;;;;;;4865056;29;20076;-78
2022/01/20 10:33:41;;;;;;;17.48;3.28;;;;;;;;;;4877545;29;20372;-77
2022/01/20 10:36:08;;;;;;;12.27;3.25;;;;;;;;;;4873920;29;20065;-75
2022/01/20 10:38:34;;;;;;;12.77;3.05;;;;;;;;;;4880881;29;20381;-76
2022/01/20 10:41:02;;;;;;;9.55;2.65;;;;;;;;;;4883616;29;20105;-75
2022/01/20 10:43:31;;;;;;;10.05;3.05;;;;;;;;;;4880302;29;20072;-74
2022/01/20 10:46:17;;;;;;;14.95;3.80;;;;;;;;;;4881242;29;20045;-76
2022/01/20 10:48:43;;;;;;;15.10;3.65;;;;;;;;;;4880134;29;20469;-74
2022/01/20 10:51:19;;;;;;;14.25;3.47;;;;;;;;;;4879657;29;20061;-75
2022/01/20 10:53:45;;;;;;;13.57;3.10;;;;;;;;;;4882792;29;20127;-76
2022/01/20 10:56:11;;;;;;;15.13;3.75;;;;;;;;;;4865005;29;20053;-74
2022/01/20 10:58:37;;;;;;;12.80;3.47;;;;;;;;;;4880737;29;20120;-75
2022/01/20 11:01:04;;;;;;;13.85;3.47;;;;;;;;;;4880370;29;20057;-73
2022/01/20 11:03:31;;;;;;;8.18;2.50;;;;;;;;;;4879183;29;20053;-76
2022/01/20 11:05:59;;;;;;;11.98;2.75;;;;;;;;;;4880852;29;20052;-75
2022/01/20 11:08:25;;;;;;;13.55;3.63;;;;;;;;;;4880404;29;20053;-77
2022/01/20 11:10:52;;;;;;;12.15;3.45;;;;;;;;;;4880647;29;20385;-74
2022/01/20 11:13:22;;;;;;;17.92;3.53;;;;;;;;;;4878044;29;20052;-75
2022/01/20 11:15:48;;;;;;;9.45;2.90;;;;;;;;;;4880438;29;20552;-74
2022/01/20 11:18:14;;;;;;;16.92;3.35;;;;;;;;;;4880260;29;20081;-75
2022/01/20 11:20:40;;;;;;;11.05;3.50;;;;;;;;;;4880961;29;20057;-76
2022/01/20 11:23:07;;;;;;;10.88;2.90;;;;;;;;;;4879195;29;20088;-76
2022/01/20 11:25:35;;;;;;;10.13;3.17;;;;;;;;;;4880147;29;20048;-74
2022/01/20 11:28:03;;;;;;;11.98;3.13;;;;;;;;;;4880391;29;20128;-75
2022/01/20 11:30:31;;;;;;;11.70;2.60;;;;;;;;;;4880586;29;20099;-75
2022/01/20 11:33:03;;;;;;;7.00;2.85;;;;;;;;;;4879085;29;20117;-76
2022/01/20 11:35:43;;;;;;;13.05;3.55;;;;;;;;;;4879768;29;20144;-75
2022/01/20 11:38:11;;;;;;;13.40;3.67;;;;;;;;;;4878334;29;20367;-77
2022/01/20 11:40:48;;;;;;;10.93;2.38;;;;;;;;;;4860006;29;20071;-77
2022/01/20 11:43:15;;;;;;;9.10;2.75;;;;;;;;;;4863132;29;20045;-77
2022/01/20 11:45:45;;;;;;;13.00;3.50;;;;;;;;;;4879891;29;20049;-75
2022/01/20 11:48:16;;;;;;;11.50;3.13;;;;;;;;;;4879583;29;20081;-76
2022/01/20 11:50:43;;;;;;;10.02;3.22;;;;;;;;;;4878723;29;20388;-75
2022/01/20 11:53:15;;;;;;;12.38;3.35;;;;;;;;;;4879943;29;20113;-78
2022/01/20 11:55:52;;;;;;;12.43;3.00;;;;;;;;;;4879110;29;20201;-76
2022/01/20 11:58:22;;;;;;;18.52;3.80;;;;;;;;;;4864149;29;20056;-76
2022/01/20 12:01:02;;;;;;;17.30;3.40;;;;;;;;;;4863889;29;20049;-77
2022/01/20 12:03:29;;;;;;;10.07;3.17;;;;;;;;;;4878316;29;20123;-76
2022/01/20 12:06:02;;;;;;;15.00;3.70;;;;;;;;;;4877758;29;20057;-77
2022/01/20 12:08:29;;;;;;;11.63;2.92;;;;;;;;;;4876734;29;20045;-78
2022/01/20 12:10:59;;;;;;;11.07;3.03;;;;;;;;;;4879546;29;20064;-77
2022/01/20 12:13:25;;;;;;;8.88;2.20;;;;;;;;;;4879205;29;20520;-76
2022/01/20 12:16:01;;;;;;;5.63;2.22;;;;;;;;;;4878648;29;20353;-76
2022/01/20 12:18:27;;;;;;;;;;;;;;;;;;4865246;29;20055;-75
2022/01/20 12:20:53;;;;;;;11.93;2.80;;;;;;;;;;4879378;29;19924;-80
2022/01/20 12:23:20;;;;;;;10.80;2.55;;;;;;;;;;4879398;29;20104;-77
2022/01/20 12:25:46;;;;;;;8.77;2.50;;;;;;;;;;4875531;29;20093;-76
2022/01/20 12:28:13;;;;;;;11.32;3.15;;;;;;;;;;4879039;29;20052;-75
2022/01/20 12:30:47;;;;;;;13.27;4.22;;;;;;;;;;4878768;29;20049;-75
2022/01/20 12:33:15;;;;;;;12.52;3.42;;;;;;;;;;4879361;29;20093;-78
2022/01/20 12:35:43;;;;;;;13.85;4.05;;;;;;;;;;4879012;29;20052;-74
2022/01/20 12:38:18;;;;;;;10.90;3.38;;;;;;;;;;4878444;29;20045;-76
2022/01/20 12:40:47;;;;;;;11.60;3.73;;;;;;;;;;4877837;29;20060;-76
2022/01/20 12:43:14;;;;;;;13.32;3.17;;;;;;;;;;4880298;29;20060;-77
2022/01/20 12:45:56;;;;;;;16.67;3.60;;;;;;;;;;4879153;29;20469;-77
2022/01/20 12:48:22;;;;;;;8.57;2.80;;;;;;;;;;4878791;29;20055;-76
2022/01/20 12:50:52;;;;;;;10.18;3.00;;;;;;;;;;4877136;29;20361;-78
2022/01/20 12:53:18;;;;;;;5.68;2.25;;;;;;;;;;4879338;29;20049;-77
2022/01/20 12:55:52;;;;;;;11.25;3.25;;;;;;;;;;4882802;29;20055;-77
2022/01/20 12:58:18;;;;;;;10.75;2.90;;;;;;;;;;4882872;29;20497;-81
2022/01/20 13:00:44;;;;;;;10.20;2.42;;;;;;;;;;4866731;29;20067;-77
2022/01/20 13:03:10;;;;;;;13.07;3.15;;;;;;;;;;4877972;29;20055;-78
2022/01/20 13:05:41;;;;;;;12.52;3.05;;;;;;;;;;4880740;29;20053;-77
2022/01/20 13:08:07;;;;;;;12.95;3.42;;;;;;;;;;4881964;29;20113;-78
2022/01/20 13:10:34;;;;;;;15.77;3.35;;;;;;;;;;4881963;29;20488;-76
2022/01/20 13:13:05;;;;;;;8.80;2.80;;;;;;;;;;4882810;29;20049;-75
2022/01/20 13:15:32;;;;;;;8.88;2.45;;;;;;;;;;4865342;29;20128;-75
2022/01/20 13:18:06;;;;;;;12.63;2.80;;;;;;;;;;4882582;29;20097;-78
2022/01/20 13:20:32;;;;;;;11.45;3.30;;;;;;;;;;4882821;29;20041;-76
2022/01/20 13:23:07;;;;;;;11.20;3.40;;;;;;;;;;4882227;29;20056;-78
2022/01/20 13:25:39;;;;;;;12.88;2.90;;;;;;;;;;4880479;29;20052;-78
2022/01/20 13:28:07;;;;;;;8.00;2.50;;;;;;;;;;4877653;29;20495;-79
2022/01/20 13:30:40;;;;;;;11.02;2.65;;;;;;;;;;4871007;29;20196;-76
2022/01/20 13:33:16;;;;;;;9.70;2.78;;;;;;;;;;4882691;29;20049;-78
2022/01/20 13:35:44;;;;;;;11.77;2.50;;;;;;;;;;4882687;29;20140;-77
2022/01/20 13:38:10;;;;;;;16.40;3.38;;;;;;;;;;4882069;29;20121;-77
2022/01/20 13:40:37;;;;;;;10.07;2.85;;;;;;;;;;4883621;29;20072;-78
2022/01/20 13:45:40;;;;;;;6.85;1.80;;;;;;;;;;4881997;29;20444;-77
2022/01/20 13:48:07;;;;;;;8.52;1.95;;;;;;;;;;4882122;29;20048;-76
2022/01/20 13:50:35;;;;;;;7.38;2.70;;;;;;;;;;4880940;29;20422;-77
2022/01/20 13:53:10;;;;;;;7.00;2.60;;;;;;;;;;4882275;29;20073;-75
2022/01/20 13:55:38;;;;;;;11.52;2.90;;;;;;;;;;4866517;29;20048;-75
2022/01/20 13:58:04;;;;;;;10.18;3.17;;;;;;;;;;4862282;29;20052;-77
2022/01/20 14:00:31;;;;;;;14.13;2.88;;;;;;;;;;4870385;29;20056;-75
2022/01/20 14:02:58;;;;;;;14.65;3.60;;;;;;;;;;4878530;29;20078;-76
2022/01/20 14:05:31;;;;;;;14.60;3.22;;;;;;;;;;4879736;29;20059;-77
2022/01/20 14:07:58;;;;;;;10.35;2.65;;;;;;;;;;4880594;29;20045;-78
2022/01/20 14:10:24;;;;;;;17.52;3.42;;;;;;;;;;4878360;29;20172;-76
2022/01/20 14:12:50;;;;;;;11.18;3.08;;;;;;;;;;4879350;29;20097;-74
2022/01/20 14:15:18;;;;;;;11.25;3.00;;;;;;;;;;4881127;29;20086;-76
2022/01/20 14:17:51;;;;;;;8.82;2.60;;;;;;;;;;4881826;29;20041;-76
2022/01/20 14:20:17;;;;;;;15.65;3.28;;;;;;;;;;4866019;29;20059;-77
2022/01/20 14:22:43;;;;;;;16.30;4.03;;;;;;;;;;4881008;29;20056;-77
2022/01/20 14:25:13;;;;;;;11.98;3.30;;;;;;;;;;4881896;29;20040;-77
2022/01/20 14:27:39;;;;;;;9.55;2.88;;;;;;;;;;4881502;29;20051;-76
2022/01/20 14:30:07;;;;;;;10.88;2.85;;;;;;;;;;4881173;29;20041;-77
2022/01/20 14:32:33;;;;;;;11.50;3.47;;;;;;;;;;4881266;29;20350;-79
2022/01/20 14:34:59;;;;;;;15.48;3.88;;;;;;;;;;4880389;29;20041;-74
2022/01/20 14:37:37;;;;;;;10.63;3.65;;;;;;;;;;4881435;29;20060;-80
2022/01/20 14:40:07;;;;;;;11.68;3.60;;;;;;;;;;4876685;29;20481;-78
2022/01/20 14:42:33;;;;;;;11.57;3.30;;;;;;;;;;4880714;29;20072;-78
2022/01/20 14:44:59;;;;;;;13.82;3.78;;;;;;;;;;4880990;29;20049;-75
2022/01/20 14:47:25;;;;;;;12.23;3.47;;;;;;;;;;4877705;29;20041;-76
2022/01/20 14:49:51;;;;;;;11.70;3.70;;;;;;;;;;4880849;29;20128;-74
2022/01/20 14:52:18;;;;;;;11.90;3.40;;;;;;;;;;4880172;29;20107;-79
2022/01/20 14:54:44;;;;;;;17.52;3.67;;;;;;;;;;4880935;29;20057;-77
2022/01/20 14:57:10;;;;;;;11.32;3.75;;;;;;;;;;4880077;29;20477;-77
2022/01/20 14:59:36;;;;;;;15.38;3.10;;;;;;;;;;4880551;29;20048;-76
2022/01/20 15:02:02;;;;;;;19.88;4.10;;;;;;;;;;4879656;29;20041;-76
2022/01/20 15:04:29;;;;;;;12.10;3.40;;;;;;;;;;4880104;29;20147;-76
2022/01/20 15:06:55;;;;;;;10.75;3.10;;;;;;;;;;4880368;29;20174;-76
2022/01/20 15:09:21;;;;;;;17.10;3.67;;;;;;;;;;4880223;29;20068;-84
2022/01/20 15:11:53;;;;;;;17.27;3.85;;;;;;;;;;4863712;29;20140;-86
